CFG7EV LGSA-EDDL
Flight info
| Callsign | CFG7EV |
|---|---|
| Flight time | 3h 19m |
| Altitude | 34000 |
| Route | SOKRI1K SOKRI UY151 DDM DCT XANIS DCT DIMIS DCT OVVER DCT RODON DCT VAKSU DCT UNIPA DCT DOL DCT SIMBA DCT KEMES DCT TESDU DCT AMETU T852 TINSA T854 DOMUX DOMUX1A |
| Aircraft | A321/M-SDE3FGHIRWY/LB1 |
Departure
| Time | 2026-05-04 16:48 |
|---|---|
| Airport | Chania International Airport (LGSA) |
Arrival
| Time | 2026-05-04 20:07 |
|---|---|
| Airport | Düsseldorf Airport (EDDL) |
| Time | Latitude | Longitude | Altitude | Speed | Heading |
|---|---|---|---|---|---|
| 2026-05-04 15:50 | 35.53913 | 24.13956 | 499 ft | 0 kts | 21° |
| 2026-05-04 16:39 | 35.53888 | 24.13944 | 495 ft | 1 kts | 21° |
| 2026-05-04 16:39 | 35.53869 | 24.13935 | 491 ft | 2 kts | 21° |
| 2026-05-04 16:40 | 35.53849 | 24.13927 | 490 ft | 2 kts | 1° |
| 2026-05-04 16:40 | 35.53828 | 24.13930 | 493 ft | 2 kts | 302° |
| 2026-05-04 16:41 | 35.53822 | 24.13947 | 490 ft | 0 kts | 291° |
| 2026-05-04 16:42 | 35.53838 | 24.13836 | 490 ft | 11 kts | 225° |
| 2026-05-04 16:43 | 35.53736 | 24.13829 | 498 ft | 13 kts | 119° |
| 2026-05-04 16:43 | 35.53623 | 24.14170 | 497 ft | 27 kts | 112° |
| 2026-05-04 16:43 | 35.53554 | 24.14381 | 496 ft | 25 kts | 111° |
| 2026-05-04 16:44 | 35.53299 | 24.15170 | 489 ft | 27 kts | 111° |
| 2026-05-04 16:45 | 35.53163 | 24.15586 | 496 ft | 25 kts | 111° |
| 2026-05-04 16:46 | 35.52957 | 24.16219 | 490 ft | 28 kts | 112° |
| 2026-05-04 16:46 | 35.52820 | 24.16643 | 496 ft | 25 kts | 112° |
| 2026-05-04 16:47 | 35.52707 | 24.16884 | 497 ft | 11 kts | 189° |
| 2026-05-04 16:47 | 35.52637 | 24.16633 | 495 ft | 46 kts | 291° |
| 2026-05-04 16:48 | 35.53598 | 24.13696 | 1008 ft | 158 kts | 291° |
| 2026-05-04 16:48 | 35.54003 | 24.12446 | 1749 ft | 158 kts | 294° |
| 2026-05-04 16:49 | 35.54834 | 24.09937 | 3042 ft | 159 kts | 298° |
| 2026-05-04 16:49 | 35.56478 | 24.08368 | 3940 ft | 157 kts | 352° |
| 2026-05-04 16:50 | 35.58802 | 24.08652 | 4417 ft | 184 kts | 5° |
| 2026-05-04 16:50 | 35.61536 | 24.08601 | 4851 ft | 207 kts | 338° |
| 2026-05-04 16:51 | 35.63912 | 24.06534 | 5785 ft | 216 kts | 323° |
| 2026-05-04 16:51 | 35.65156 | 24.05352 | 5929 ft | 236 kts | 323° |
| 2026-05-04 16:51 | 35.67916 | 24.02733 | 6880 ft | 257 kts | 323° |
| 2026-05-04 16:52 | 35.70750 | 24.00034 | 8296 ft | 259 kts | 323° |
| 2026-05-04 16:52 | 35.72158 | 23.98694 | 8996 ft | 260 kts | 323° |
| 2026-05-04 16:53 | 35.75037 | 23.95948 | 10299 ft | 267 kts | 323° |
| 2026-05-04 16:53 | 35.79940 | 23.91281 | 10847 ft | 320 kts | 323° |
| 2026-05-04 16:54 | 35.81711 | 23.89592 | 11427 ft | 323 kts | 322° |
| 2026-05-04 16:55 | 35.88861 | 23.82744 | 14094 ft | 327 kts | 321° |
| 2026-05-04 16:55 | 35.92465 | 23.79291 | 15269 ft | 329 kts | 320° |
| 2026-05-04 16:56 | 35.96102 | 23.75801 | 16397 ft | 332 kts | 320° |
| 2026-05-04 16:56 | 36.01620 | 23.70503 | 18027 ft | 338 kts | 319° |
| 2026-05-04 16:57 | 36.03479 | 23.68717 | 18535 ft | 340 kts | 319° |
| 2026-05-04 16:57 | 36.07226 | 23.65111 | 19444 ft | 343 kts | 319° |
| 2026-05-04 16:58 | 36.12893 | 23.59641 | 20825 ft | 346 kts | 320° |
| 2026-05-04 16:58 | 36.14793 | 23.57809 | 21269 ft | 347 kts | 320° |
| 2026-05-04 16:59 | 36.18620 | 23.54116 | 22143 ft | 350 kts | 320° |
| 2026-05-04 17:00 | 36.26681 | 23.47263 | 23810 ft | 360 kts | 336° |
| 2026-05-04 17:00 | 36.34149 | 23.45465 | 24732 ft | 370 kts | 345° |
| 2026-05-04 17:01 | 36.39255 | 23.44415 | 25321 ft | 374 kts | 345° |
| 2026-05-04 17:01 | 36.44414 | 23.43349 | 25898 ft | 378 kts | 345° |
| 2026-05-04 17:02 | 36.49624 | 23.42270 | 26473 ft | 381 kts | 346° |
| 2026-05-04 17:02 | 36.54882 | 23.41193 | 27016 ft | 385 kts | 346° |
| 2026-05-04 17:03 | 36.57529 | 23.40641 | 27266 ft | 387 kts | 346° |
| 2026-05-04 17:03 | 36.60188 | 23.40083 | 27502 ft | 389 kts | 346° |
| 2026-05-04 17:03 | 36.65556 | 23.38965 | 27974 ft | 393 kts | 346° |
| 2026-05-04 17:04 | 36.70977 | 23.37840 | 28428 ft | 397 kts | 346° |
| 2026-05-04 17:04 | 36.75525 | 23.36898 | 28809 ft | 400 kts | 346° |
| 2026-05-04 17:05 | 36.81046 | 23.35752 | 29265 ft | 404 kts | 347° |
| 2026-05-04 17:05 | 36.86580 | 23.34593 | 29945 ft | 402 kts | 347° |
| 2026-05-04 17:06 | 36.92087 | 23.33436 | 30511 ft | 401 kts | 347° |
| 2026-05-04 17:06 | 36.94837 | 23.32862 | 30764 ft | 401 kts | 347° |
| 2026-05-04 17:07 | 37.00341 | 23.31714 | 31251 ft | 401 kts | 347° |
| 2026-05-04 17:07 | 37.02160 | 23.31335 | 31415 ft | 401 kts | 347° |
| 2026-05-04 17:07 | 37.05841 | 23.30568 | 31747 ft | 401 kts | 347° |
| 2026-05-04 17:07 | 37.08589 | 23.29994 | 32004 ft | 401 kts | 347° |
| 2026-05-04 17:08 | 37.11340 | 23.29418 | 32219 ft | 401 kts | 347° |
| 2026-05-04 17:08 | 37.16839 | 23.28259 | 32690 ft | 401 kts | 347° |
| 2026-05-04 17:08 | 37.19595 | 23.27678 | 32921 ft | 401 kts | 347° |
| 2026-05-04 17:09 | 37.22350 | 23.27101 | 33127 ft | 402 kts | 347° |
| 2026-05-04 17:09 | 37.25108 | 23.26522 | 33346 ft | 402 kts | 347° |
| 2026-05-04 17:09 | 37.27871 | 23.25938 | 33559 ft | 403 kts | 347° |
| 2026-05-04 17:10 | 37.33403 | 23.24767 | 33960 ft | 404 kts | 347° |
| 2026-05-04 17:10 | 37.41709 | 23.23012 | 34125 ft | 403 kts | 347° |
| 2026-05-04 17:11 | 37.47145 | 23.21456 | 34125 ft | 399 kts | 336° |
| 2026-05-04 17:11 | 37.51890 | 23.17910 | 34129 ft | 399 kts | 324° |
| 2026-05-04 17:12 | 37.54117 | 23.15827 | 34118 ft | 399 kts | 324° |
| 2026-05-04 17:13 | 37.65251 | 23.05511 | 34138 ft | 398 kts | 324° |
| 2026-05-04 17:14 | 37.74153 | 22.97225 | 34121 ft | 397 kts | 324° |
| 2026-05-04 17:15 | 37.80821 | 22.90997 | 34117 ft | 397 kts | 324° |
| 2026-05-04 17:16 | 37.89690 | 22.82689 | 34118 ft | 396 kts | 325° |
| 2026-05-04 17:17 | 37.98549 | 22.74371 | 34117 ft | 396 kts | 325° |
| 2026-05-04 17:18 | 38.07393 | 22.66032 | 34126 ft | 396 kts | 325° |
| 2026-05-04 17:19 | 38.16378 | 22.57542 | 34124 ft | 409 kts | 325° |
| 2026-05-04 17:20 | 38.25462 | 22.48921 | 34125 ft | 408 kts | 325° |
| 2026-05-04 17:20 | 38.32276 | 22.42442 | 34137 ft | 407 kts | 325° |
| 2026-05-04 17:21 | 38.41345 | 22.33786 | 34137 ft | 407 kts | 325° |
| 2026-05-04 17:22 | 38.45877 | 22.29461 | 34136 ft | 406 kts | 326° |
| 2026-05-04 17:23 | 38.54920 | 22.20798 | 34143 ft | 406 kts | 325° |
| 2026-05-04 17:24 | 38.61587 | 22.14192 | 34143 ft | 406 kts | 323° |
| 2026-05-04 17:25 | 38.70339 | 22.05029 | 34145 ft | 406 kts | 323° |
| 2026-05-04 17:26 | 38.79117 | 21.95924 | 34146 ft | 406 kts | 324° |
| 2026-05-04 17:27 | 38.90067 | 21.84539 | 34140 ft | 405 kts | 323° |
| 2026-05-04 17:27 | 38.94402 | 21.80008 | 33800 ft | 405 kts | 323° |
| 2026-05-04 17:28 | 38.98747 | 21.75455 | 34132 ft | 398 kts | 322° |
| 2026-05-04 17:29 | 39.11491 | 21.62085 | 34139 ft | 393 kts | 322° |
| 2026-05-04 17:31 | 39.22056 | 21.50946 | 34134 ft | 394 kts | 322° |
| 2026-05-04 17:32 | 39.32650 | 21.39743 | 34125 ft | 394 kts | 322° |
| 2026-05-04 17:33 | 39.41111 | 21.30747 | 34119 ft | 395 kts | 322° |
| 2026-05-04 17:34 | 39.49600 | 21.21706 | 34118 ft | 396 kts | 322° |
| 2026-05-04 17:35 | 39.60242 | 21.10324 | 34125 ft | 398 kts | 322° |
| 2026-05-04 17:36 | 39.64504 | 21.05740 | 34126 ft | 398 kts | 322° |
| 2026-05-04 17:36 | 39.68745 | 21.01176 | 34130 ft | 399 kts | 322° |
| 2026-05-04 17:37 | 39.73017 | 20.96588 | 34132 ft | 399 kts | 322° |
| 2026-05-04 17:37 | 39.77322 | 20.91967 | 34136 ft | 398 kts | 322° |
| 2026-05-04 17:38 | 39.81551 | 20.87396 | 34138 ft | 398 kts | 322° |
| 2026-05-04 17:38 | 39.85808 | 20.82785 | 34141 ft | 398 kts | 322° |
| 2026-05-04 17:39 | 39.92192 | 20.75866 | 34133 ft | 398 kts | 322° |
| 2026-05-04 17:39 | 39.96442 | 20.71257 | 34126 ft | 398 kts | 322° |
| 2026-05-04 17:40 | 40.00692 | 20.66631 | 34112 ft | 398 kts | 322° |
| 2026-05-04 17:40 | 40.04938 | 20.62002 | 34105 ft | 398 kts | 322° |
| 2026-05-04 17:41 | 40.09141 | 20.57308 | 34107 ft | 398 kts | 320° |
| 2026-05-04 17:41 | 40.13182 | 20.52348 | 34109 ft | 399 kts | 318° |
| 2026-05-04 17:42 | 40.17171 | 20.47313 | 34110 ft | 398 kts | 318° |
| 2026-05-04 17:42 | 40.21150 | 20.42342 | 34111 ft | 398 kts | 318° |
| 2026-05-04 17:43 | 40.25172 | 20.37364 | 34114 ft | 398 kts | 319° |
| 2026-05-04 17:43 | 40.29194 | 20.32387 | 34110 ft | 398 kts | 319° |
| 2026-05-04 17:44 | 40.33212 | 20.27408 | 34109 ft | 398 kts | 319° |
| 2026-05-04 17:44 | 40.37227 | 20.22416 | 34109 ft | 398 kts | 318° |
| 2026-05-04 17:45 | 40.41251 | 20.17419 | 34107 ft | 398 kts | 319° |
| 2026-05-04 17:45 | 40.45277 | 20.12418 | 34109 ft | 399 kts | 318° |
| 2026-05-04 17:46 | 40.49296 | 20.07397 | 34115 ft | 398 kts | 318° |
| 2026-05-04 17:46 | 40.53278 | 20.02397 | 34122 ft | 398 kts | 318° |
| 2026-05-04 17:47 | 40.57603 | 19.97902 | 34123 ft | 396 kts | 324° |
| 2026-05-04 17:47 | 40.62026 | 19.93573 | 34115 ft | 396 kts | 324° |
| 2026-05-04 17:48 | 40.66452 | 19.89245 | 34122 ft | 396 kts | 324° |
| 2026-05-04 17:48 | 40.70877 | 19.84904 | 34121 ft | 397 kts | 324° |
| 2026-05-04 17:49 | 40.75295 | 19.80539 | 34113 ft | 397 kts | 324° |
| 2026-05-04 17:49 | 40.79715 | 19.76163 | 34118 ft | 397 kts | 324° |
| 2026-05-04 17:50 | 40.84141 | 19.71788 | 34114 ft | 397 kts | 324° |
| 2026-05-04 17:50 | 40.88569 | 19.67408 | 34122 ft | 397 kts | 324° |
| 2026-05-04 17:51 | 40.92999 | 19.63015 | 34110 ft | 399 kts | 324° |
| 2026-05-04 17:51 | 40.97448 | 19.58594 | 34110 ft | 400 kts | 324° |
| 2026-05-04 17:52 | 41.01904 | 19.54163 | 34108 ft | 401 kts | 324° |
| 2026-05-04 17:52 | 41.06334 | 19.49741 | 34112 ft | 402 kts | 324° |
| 2026-05-04 17:53 | 41.10804 | 19.45281 | 34111 ft | 402 kts | 324° |
| 2026-05-04 17:53 | 41.15272 | 19.40801 | 34108 ft | 403 kts | 324° |
| 2026-05-04 17:54 | 41.19743 | 19.36310 | 34107 ft | 403 kts | 324° |
| 2026-05-04 17:54 | 41.24221 | 19.31815 | 34112 ft | 404 kts | 324° |
| 2026-05-04 17:55 | 41.28702 | 19.27315 | 34108 ft | 404 kts | 324° |
| 2026-05-04 17:55 | 41.33181 | 19.22800 | 34112 ft | 404 kts | 323° |
| 2026-05-04 17:56 | 41.37666 | 19.18273 | 34113 ft | 404 kts | 323° |
| 2026-05-04 17:56 | 41.42148 | 19.13743 | 34106 ft | 405 kts | 323° |
| 2026-05-04 17:57 | 41.46628 | 19.09187 | 34107 ft | 405 kts | 323° |
| 2026-05-04 17:57 | 41.51075 | 19.04658 | 34111 ft | 405 kts | 323° |
| 2026-05-04 17:58 | 41.55553 | 19.00071 | 34107 ft | 406 kts | 323° |
| 2026-05-04 17:58 | 41.60034 | 18.95479 | 34108 ft | 406 kts | 323° |
| 2026-05-04 17:59 | 41.64519 | 18.90880 | 34111 ft | 406 kts | 323° |
| 2026-05-04 18:00 | 41.71246 | 18.83965 | 34109 ft | 406 kts | 323° |
| 2026-05-04 18:00 | 41.74971 | 18.80129 | 34117 ft | 406 kts | 323° |
| 2026-05-04 18:01 | 41.79452 | 18.75504 | 34115 ft | 406 kts | 323° |
| 2026-05-04 18:01 | 41.83927 | 18.70870 | 34118 ft | 407 kts | 323° |
| 2026-05-04 18:02 | 41.90651 | 18.63904 | 34109 ft | 407 kts | 323° |
| 2026-05-04 18:02 | 41.95128 | 18.59247 | 34111 ft | 407 kts | 323° |
| 2026-05-04 18:03 | 41.99606 | 18.54587 | 34112 ft | 407 kts | 323° |
| 2026-05-04 18:03 | 42.04083 | 18.49988 | 34109 ft | 408 kts | 324° |
| 2026-05-04 18:04 | 42.08682 | 18.45521 | 34105 ft | 408 kts | 325° |
| 2026-05-04 18:05 | 42.15621 | 18.38841 | 34101 ft | 409 kts | 324° |
| 2026-05-04 18:05 | 42.20247 | 18.34331 | 34091 ft | 412 kts | 324° |
| 2026-05-04 18:06 | 42.27212 | 18.27470 | 34102 ft | 415 kts | 324° |
| 2026-05-04 18:06 | 42.31876 | 18.22867 | 34108 ft | 416 kts | 324° |
| 2026-05-04 18:07 | 42.36552 | 18.18250 | 34115 ft | 417 kts | 324° |
| 2026-05-04 18:07 | 42.41241 | 18.13623 | 34118 ft | 417 kts | 324° |
| 2026-05-04 18:08 | 42.45937 | 18.08988 | 34119 ft | 418 kts | 324° |
| 2026-05-04 18:08 | 42.50595 | 18.04368 | 34119 ft | 418 kts | 324° |
| 2026-05-04 18:09 | 42.59986 | 17.95029 | 34119 ft | 419 kts | 324° |
| 2026-05-04 18:10 | 42.64689 | 17.90349 | 34117 ft | 419 kts | 323° |
| 2026-05-04 18:10 | 42.69393 | 17.85646 | 34113 ft | 420 kts | 323° |
| 2026-05-04 18:11 | 42.74093 | 17.80939 | 34116 ft | 420 kts | 323° |
| 2026-05-04 18:11 | 42.78802 | 17.76217 | 34110 ft | 420 kts | 323° |
| 2026-05-04 18:12 | 42.83510 | 17.71488 | 34106 ft | 421 kts | 323° |
| 2026-05-04 18:12 | 42.88191 | 17.66776 | 34100 ft | 421 kts | 323° |
| 2026-05-04 18:13 | 42.92906 | 17.62017 | 34101 ft | 422 kts | 323° |
| 2026-05-04 18:14 | 42.99975 | 17.54856 | 34101 ft | 422 kts | 323° |
| 2026-05-04 18:14 | 43.04700 | 17.50075 | 34098 ft | 423 kts | 323° |
| 2026-05-04 18:15 | 43.14157 | 17.40469 | 34099 ft | 424 kts | 323° |
| 2026-05-04 18:16 | 43.18888 | 17.35641 | 34098 ft | 424 kts | 323° |
| 2026-05-04 18:16 | 43.23622 | 17.30795 | 34099 ft | 425 kts | 323° |
| 2026-05-04 18:17 | 43.30728 | 17.23509 | 34103 ft | 426 kts | 323° |
| 2026-05-04 18:18 | 43.37821 | 17.16238 | 34104 ft | 426 kts | 322° |
| 2026-05-04 18:18 | 43.42576 | 17.11342 | 34105 ft | 427 kts | 322° |
| 2026-05-04 18:19 | 43.49708 | 17.03962 | 34106 ft | 428 kts | 322° |
| 2026-05-04 18:19 | 43.54472 | 16.99023 | 34106 ft | 429 kts | 322° |
| 2026-05-04 18:20 | 43.59247 | 16.94081 | 34107 ft | 429 kts | 322° |
| 2026-05-04 18:20 | 43.63984 | 16.89151 | 34107 ft | 430 kts | 322° |
| 2026-05-04 18:21 | 43.68764 | 16.84169 | 34106 ft | 431 kts | 322° |
| 2026-05-04 18:21 | 43.73548 | 16.79179 | 34109 ft | 431 kts | 322° |
| 2026-05-04 18:22 | 43.78348 | 16.74173 | 34108 ft | 432 kts | 322° |
| 2026-05-04 18:22 | 43.83140 | 16.69152 | 34110 ft | 432 kts | 322° |
| 2026-05-04 18:23 | 43.87933 | 16.64110 | 34105 ft | 433 kts | 322° |
| 2026-05-04 18:23 | 43.92734 | 16.59059 | 34103 ft | 433 kts | 322° |
| 2026-05-04 18:24 | 43.97506 | 16.54039 | 34101 ft | 433 kts | 322° |
| 2026-05-04 18:24 | 44.02313 | 16.48969 | 34106 ft | 434 kts | 323° |
| 2026-05-04 18:25 | 44.07500 | 16.44640 | 34106 ft | 435 kts | 329° |
| 2026-05-04 18:25 | 44.12758 | 16.40447 | 34102 ft | 436 kts | 329° |
| 2026-05-04 18:26 | 44.18027 | 16.36239 | 34107 ft | 437 kts | 329° |
| 2026-05-04 18:26 | 44.23303 | 16.32023 | 34105 ft | 437 kts | 328° |
| 2026-05-04 18:27 | 44.28581 | 16.27789 | 34108 ft | 438 kts | 328° |
| 2026-05-04 18:27 | 44.33833 | 16.23572 | 34107 ft | 439 kts | 328° |
| 2026-05-04 18:28 | 44.39156 | 16.19276 | 34113 ft | 439 kts | 328° |
| 2026-05-04 18:28 | 44.44442 | 16.14995 | 34109 ft | 439 kts | 328° |
| 2026-05-04 18:29 | 44.49704 | 16.10737 | 34107 ft | 440 kts | 328° |
| 2026-05-04 18:29 | 44.54998 | 16.06449 | 34102 ft | 440 kts | 328° |
| 2026-05-04 18:30 | 44.62939 | 15.99992 | 34091 ft | 440 kts | 328° |
| 2026-05-04 18:31 | 44.68234 | 15.95665 | 34086 ft | 440 kts | 328° |
| 2026-05-04 18:31 | 44.73523 | 15.91336 | 34081 ft | 440 kts | 328° |
| 2026-05-04 18:32 | 44.78816 | 15.87005 | 34077 ft | 440 kts | 327° |
| 2026-05-04 18:32 | 44.84113 | 15.82662 | 34067 ft | 441 kts | 327° |
| 2026-05-04 18:33 | 44.89376 | 15.78335 | 34064 ft | 441 kts | 327° |
| 2026-05-04 18:33 | 44.94675 | 15.73965 | 34057 ft | 441 kts | 327° |
| 2026-05-04 18:34 | 44.99977 | 15.69590 | 34054 ft | 441 kts | 327° |
| 2026-05-04 18:34 | 45.05278 | 15.65200 | 34053 ft | 442 kts | 327° |
| 2026-05-04 18:35 | 45.10579 | 15.60792 | 34045 ft | 442 kts | 327° |
| 2026-05-04 18:35 | 45.15890 | 15.56377 | 34042 ft | 443 kts | 328° |
| 2026-05-04 18:36 | 45.21202 | 15.51959 | 34044 ft | 443 kts | 327° |
| 2026-05-04 18:36 | 45.26517 | 15.47522 | 34045 ft | 444 kts | 327° |
| 2026-05-04 18:37 | 45.31840 | 15.43067 | 34046 ft | 444 kts | 327° |
| 2026-05-04 18:37 | 45.37161 | 15.38601 | 34044 ft | 444 kts | 327° |
| 2026-05-04 18:38 | 45.42485 | 15.34130 | 34046 ft | 444 kts | 327° |
| 2026-05-04 18:38 | 45.47811 | 15.29649 | 34045 ft | 445 kts | 327° |
| 2026-05-04 18:39 | 45.53100 | 15.25174 | 34047 ft | 445 kts | 327° |
| 2026-05-04 18:39 | 45.58429 | 15.20648 | 34050 ft | 446 kts | 327° |
| 2026-05-04 18:40 | 45.63767 | 15.16132 | 34049 ft | 446 kts | 327° |
| 2026-05-04 18:40 | 45.69106 | 15.11598 | 34049 ft | 447 kts | 327° |
| 2026-05-04 18:41 | 45.74448 | 15.07039 | 34048 ft | 447 kts | 327° |
| 2026-05-04 18:41 | 45.79802 | 15.02476 | 34052 ft | 448 kts | 327° |
| 2026-05-04 18:42 | 45.85126 | 14.97928 | 34055 ft | 448 kts | 327° |
| 2026-05-04 18:42 | 45.90473 | 14.93331 | 34051 ft | 449 kts | 327° |
| 2026-05-04 18:43 | 45.95816 | 14.88728 | 34284 ft | 445 kts | 327° |
| 2026-05-04 18:43 | 45.98464 | 14.86445 | 34458 ft | 443 kts | 327° |
| 2026-05-04 18:43 | 46.01104 | 14.84168 | 34625 ft | 442 kts | 327° |
| 2026-05-04 18:43 | 46.03740 | 14.81889 | 34901 ft | 441 kts | 327° |
| 2026-05-04 18:44 | 46.06364 | 14.79617 | 35200 ft | 440 kts | 327° |
| 2026-05-04 18:44 | 46.08106 | 14.78109 | 35376 ft | 439 kts | 327° |
| 2026-05-04 18:44 | 46.11641 | 14.75155 | 35743 ft | 438 kts | 328° |
| 2026-05-04 18:44 | 46.14310 | 14.73052 | 35997 ft | 438 kts | 329° |
| 2026-05-04 18:45 | 46.17002 | 14.70985 | 36073 ft | 437 kts | 329° |
| 2026-05-04 18:45 | 46.22368 | 14.66876 | 36076 ft | 436 kts | 329° |
| 2026-05-04 18:46 | 46.27667 | 14.62732 | 36080 ft | 436 kts | 329° |
| 2026-05-04 18:46 | 46.32980 | 14.58510 | 36078 ft | 436 kts | 329° |
| 2026-05-04 18:47 | 46.38303 | 14.54267 | 36079 ft | 437 kts | 329° |
| 2026-05-04 18:47 | 46.43632 | 14.50029 | 36070 ft | 437 kts | 329° |
| 2026-05-04 18:48 | 46.48961 | 14.45792 | 36038 ft | 437 kts | 329° |
| 2026-05-04 18:48 | 46.54288 | 14.41549 | 36032 ft | 437 kts | 329° |
| 2026-05-04 18:49 | 46.59605 | 14.37287 | 36024 ft | 437 kts | 329° |
| 2026-05-04 18:49 | 46.64926 | 14.33013 | 36021 ft | 437 kts | 329° |
| 2026-05-04 18:50 | 46.70253 | 14.28735 | 36017 ft | 437 kts | 329° |
| 2026-05-04 18:50 | 46.75580 | 14.24436 | 36020 ft | 438 kts | 329° |
| 2026-05-04 18:51 | 46.80909 | 14.20136 | 36020 ft | 438 kts | 328° |
| 2026-05-04 18:51 | 46.86244 | 14.15817 | 36021 ft | 438 kts | 328° |
| 2026-05-04 18:52 | 46.91578 | 14.11481 | 36028 ft | 439 kts | 328° |
| 2026-05-04 18:52 | 46.96870 | 14.07173 | 36027 ft | 439 kts | 328° |
| 2026-05-04 18:53 | 47.02218 | 14.02827 | 36030 ft | 439 kts | 328° |
| 2026-05-04 18:53 | 47.07562 | 13.98468 | 36031 ft | 440 kts | 328° |
| 2026-05-04 18:54 | 47.12905 | 13.94097 | 36025 ft | 440 kts | 328° |
| 2026-05-04 18:54 | 47.18252 | 13.89707 | 36019 ft | 440 kts | 328° |
| 2026-05-04 18:55 | 47.23596 | 13.85302 | 36018 ft | 440 kts | 328° |
| 2026-05-04 18:55 | 47.31609 | 13.78675 | 36009 ft | 441 kts | 328° |
| 2026-05-04 18:56 | 47.36956 | 13.74261 | 35996 ft | 441 kts | 328° |
| 2026-05-04 18:56 | 47.42313 | 13.69829 | 35987 ft | 441 kts | 328° |
| 2026-05-04 18:57 | 47.47627 | 13.65412 | 35977 ft | 441 kts | 328° |
| 2026-05-04 18:57 | 47.52970 | 13.60953 | 35959 ft | 441 kts | 328° |
| 2026-05-04 18:58 | 47.58312 | 13.56482 | 35953 ft | 441 kts | 328° |
| 2026-05-04 18:58 | 47.63659 | 13.52006 | 35945 ft | 441 kts | 328° |
| 2026-05-04 18:59 | 47.69009 | 13.47526 | 35932 ft | 442 kts | 328° |
| 2026-05-04 18:59 | 47.74357 | 13.43026 | 35928 ft | 442 kts | 328° |
| 2026-05-04 19:00 | 47.78804 | 13.39273 | 35925 ft | 443 kts | 328° |
| 2026-05-04 19:00 | 47.84160 | 13.34741 | 35918 ft | 443 kts | 328° |
| 2026-05-04 19:01 | 47.89512 | 13.30210 | 35918 ft | 443 kts | 328° |
| 2026-05-04 19:01 | 47.94874 | 13.25662 | 35923 ft | 443 kts | 328° |
| 2026-05-04 19:02 | 48.00230 | 13.21103 | 35908 ft | 443 kts | 327° |
| 2026-05-04 19:02 | 48.05586 | 13.16531 | 35908 ft | 443 kts | 327° |
| 2026-05-04 19:03 | 48.10942 | 13.11958 | 35912 ft | 444 kts | 327° |
| 2026-05-04 19:03 | 48.16301 | 13.07364 | 35911 ft | 444 kts | 327° |
| 2026-05-04 19:04 | 48.21651 | 13.02747 | 35908 ft | 443 kts | 325° |
| 2026-05-04 19:04 | 48.26426 | 12.97140 | 35903 ft | 438 kts | 316° |
| 2026-05-04 19:05 | 48.31019 | 12.91098 | 35902 ft | 439 kts | 316° |
| 2026-05-04 19:05 | 48.35612 | 12.85046 | 35904 ft | 440 kts | 315° |
| 2026-05-04 19:06 | 48.40208 | 12.78972 | 35909 ft | 440 kts | 315° |
| 2026-05-04 19:06 | 48.44814 | 12.72892 | 35913 ft | 440 kts | 315° |
| 2026-05-04 19:07 | 48.49420 | 12.66800 | 35916 ft | 441 kts | 315° |
| 2026-05-04 19:07 | 48.54013 | 12.60685 | 35920 ft | 440 kts | 315° |
| 2026-05-04 19:08 | 48.58578 | 12.54593 | 35919 ft | 440 kts | 315° |
| 2026-05-04 19:08 | 48.63167 | 12.48464 | 35925 ft | 440 kts | 315° |
| 2026-05-04 19:09 | 48.67754 | 12.42323 | 35926 ft | 441 kts | 315° |
| 2026-05-04 19:09 | 48.72341 | 12.36167 | 35933 ft | 441 kts | 315° |
| 2026-05-04 19:10 | 48.76923 | 12.30002 | 35935 ft | 441 kts | 315° |
| 2026-05-04 19:10 | 48.81505 | 12.23820 | 35937 ft | 441 kts | 315° |
| 2026-05-04 19:11 | 48.86084 | 12.17621 | 35941 ft | 441 kts | 315° |
| 2026-05-04 19:11 | 48.90656 | 12.11416 | 35947 ft | 441 kts | 315° |
| 2026-05-04 19:12 | 48.97488 | 12.02125 | 35956 ft | 441 kts | 315° |
| 2026-05-04 19:13 | 49.02057 | 11.95887 | 35964 ft | 441 kts | 315° |
| 2026-05-04 19:13 | 49.06621 | 11.89639 | 35969 ft | 441 kts | 315° |
| 2026-05-04 19:14 | 49.11182 | 11.83381 | 35967 ft | 441 kts | 315° |
| 2026-05-04 19:14 | 49.15739 | 11.77111 | 35968 ft | 441 kts | 314° |
| 2026-05-04 19:15 | 49.20293 | 11.70822 | 35966 ft | 441 kts | 314° |
| 2026-05-04 19:15 | 49.24845 | 11.64533 | 35963 ft | 441 kts | 314° |
| 2026-05-04 19:16 | 49.29394 | 11.58223 | 35962 ft | 441 kts | 314° |
| 2026-05-04 19:16 | 49.33942 | 11.51897 | 35955 ft | 442 kts | 314° |
| 2026-05-04 19:17 | 49.38457 | 11.45602 | 35958 ft | 442 kts | 314° |
| 2026-05-04 19:17 | 49.43007 | 11.39260 | 35959 ft | 442 kts | 314° |
| 2026-05-04 19:18 | 49.47546 | 11.32901 | 35958 ft | 442 kts | 314° |
| 2026-05-04 19:18 | 49.52077 | 11.26522 | 35964 ft | 442 kts | 314° |
| 2026-05-04 19:19 | 49.56642 | 11.20186 | 35954 ft | 442 kts | 316° |
| 2026-05-04 19:19 | 49.61424 | 11.14201 | 35957 ft | 444 kts | 318° |
| 2026-05-04 19:20 | 49.66296 | 11.08338 | 35958 ft | 444 kts | 318° |
| 2026-05-04 19:20 | 49.71119 | 11.02411 | 35962 ft | 443 kts | 317° |
| 2026-05-04 19:21 | 49.75904 | 10.96406 | 35968 ft | 443 kts | 317° |
| 2026-05-04 19:21 | 49.80671 | 10.90378 | 35974 ft | 442 kts | 317° |
| 2026-05-04 19:22 | 49.85441 | 10.84367 | 35980 ft | 442 kts | 317° |
| 2026-05-04 19:22 | 49.90206 | 10.78356 | 35981 ft | 441 kts | 317° |
| 2026-05-04 19:23 | 49.94964 | 10.72345 | 35983 ft | 441 kts | 317° |
| 2026-05-04 19:23 | 49.99686 | 10.66369 | 35989 ft | 440 kts | 316° |
| 2026-05-04 19:24 | 50.04426 | 10.60344 | 35979 ft | 440 kts | 316° |
| 2026-05-04 19:24 | 50.09183 | 10.54274 | 35955 ft | 443 kts | 316° |
| 2026-05-04 19:25 | 50.13953 | 10.48174 | 35953 ft | 444 kts | 316° |
| 2026-05-04 19:25 | 50.18729 | 10.42036 | 35971 ft | 444 kts | 315° |
| 2026-05-04 19:25 | 50.20853 | 10.38611 | 35988 ft | 436 kts | 303° |
| 2026-05-04 19:26 | 50.22661 | 10.34817 | 35989 ft | 435 kts | 302° |
| 2026-05-04 19:26 | 50.26248 | 10.27216 | 35994 ft | 434 kts | 302° |
| 2026-05-04 19:27 | 50.29789 | 10.19587 | 35997 ft | 433 kts | 301° |
| 2026-05-04 19:27 | 50.33318 | 10.11940 | 35992 ft | 433 kts | 301° |
| 2026-05-04 19:28 | 50.36843 | 10.04289 | 35987 ft | 433 kts | 301° |
| 2026-05-04 19:28 | 50.40365 | 9.96632 | 35987 ft | 433 kts | 301° |
| 2026-05-04 19:29 | 50.43890 | 9.88969 | 35993 ft | 433 kts | 301° |
| 2026-05-04 19:29 | 50.47402 | 9.81285 | 35983 ft | 439 kts | 301° |
| 2026-05-04 19:30 | 50.50913 | 9.73575 | 35988 ft | 440 kts | 301° |
| 2026-05-04 19:30 | 50.54524 | 9.65639 | 35984 ft | 441 kts | 301° |
| 2026-05-04 19:31 | 50.58072 | 9.57829 | 35844 ft | 437 kts | 301° |
| 2026-05-04 19:31 | 50.59833 | 9.53940 | 35390 ft | 435 kts | 301° |
| 2026-05-04 19:31 | 50.61580 | 9.50075 | 34948 ft | 434 kts | 301° |
| 2026-05-04 19:31 | 50.63330 | 9.46190 | 34505 ft | 434 kts | 300° |
| 2026-05-04 19:32 | 50.65069 | 9.42318 | 34083 ft | 434 kts | 300° |
| 2026-05-04 19:32 | 50.66813 | 9.38430 | 33600 ft | 433 kts | 300° |
| 2026-05-04 19:32 | 50.68549 | 9.34564 | 33109 ft | 431 kts | 300° |
| 2026-05-04 19:32 | 50.70277 | 9.30721 | 32630 ft | 428 kts | 300° |
| 2026-05-04 19:33 | 50.71995 | 9.26891 | 32154 ft | 426 kts | 300° |
| 2026-05-04 19:33 | 50.73696 | 9.23089 | 31687 ft | 423 kts | 300° |
| 2026-05-04 19:33 | 50.75390 | 9.19295 | 31217 ft | 421 kts | 300° |
| 2026-05-04 19:33 | 50.77065 | 9.15529 | 30775 ft | 418 kts | 300° |
| 2026-05-04 19:34 | 50.78727 | 9.11784 | 30333 ft | 415 kts | 300° |
| 2026-05-04 19:34 | 50.80384 | 9.08051 | 29810 ft | 413 kts | 300° |
| 2026-05-04 19:34 | 50.82029 | 9.04342 | 29253 ft | 411 kts | 300° |
| 2026-05-04 19:34 | 50.83632 | 9.00716 | 28973 ft | 406 kts | 300° |
| 2026-05-04 19:35 | 50.85269 | 8.97006 | 28983 ft | 406 kts | 300° |
| 2026-05-04 19:35 | 50.88485 | 8.89721 | 28988 ft | 407 kts | 300° |
| 2026-05-04 19:36 | 50.91723 | 8.82381 | 28987 ft | 406 kts | 300° |
| 2026-05-04 19:36 | 50.94958 | 8.75018 | 28547 ft | 406 kts | 300° |
| 2026-05-04 19:36 | 50.96565 | 8.71362 | 28081 ft | 403 kts | 300° |
| 2026-05-04 19:37 | 50.98179 | 8.67740 | 27550 ft | 402 kts | 304° |
| 2026-05-04 19:37 | 51.00227 | 8.64696 | 26986 ft | 409 kts | 321° |
| 2026-05-04 19:37 | 51.02629 | 8.62237 | 26409 ft | 410 kts | 324° |
| 2026-05-04 19:37 | 51.05029 | 8.59864 | 26055 ft | 404 kts | 324° |
| 2026-05-04 19:38 | 51.07413 | 8.57507 | 25972 ft | 401 kts | 324° |
| 2026-05-04 19:38 | 51.09788 | 8.55158 | 25997 ft | 402 kts | 324° |
| 2026-05-04 19:38 | 51.12162 | 8.52812 | 25999 ft | 402 kts | 324° |
| 2026-05-04 19:38 | 51.14539 | 8.50462 | 25997 ft | 402 kts | 324° |
| 2026-05-04 19:39 | 51.16910 | 8.48119 | 25995 ft | 402 kts | 324° |
| 2026-05-04 19:39 | 51.19290 | 8.45768 | 25995 ft | 402 kts | 324° |
| 2026-05-04 19:39 | 51.21660 | 8.43426 | 25995 ft | 402 kts | 324° |
| 2026-05-04 19:39 | 51.24040 | 8.41075 | 25997 ft | 402 kts | 324° |
| 2026-05-04 19:40 | 51.26414 | 8.38727 | 25927 ft | 403 kts | 324° |
| 2026-05-04 19:40 | 51.28790 | 8.36375 | 25672 ft | 400 kts | 324° |
| 2026-05-04 19:40 | 51.31149 | 8.34031 | 25426 ft | 399 kts | 324° |
| 2026-05-04 19:40 | 51.33498 | 8.31687 | 25172 ft | 397 kts | 324° |
| 2026-05-04 19:41 | 51.35832 | 8.29345 | 24954 ft | 395 kts | 324° |
| 2026-05-04 19:41 | 51.38143 | 8.27013 | 24715 ft | 394 kts | 324° |
| 2026-05-04 19:41 | 51.40459 | 8.24664 | 24471 ft | 392 kts | 324° |
| 2026-05-04 19:41 | 51.42755 | 8.22320 | 24234 ft | 390 kts | 324° |
| 2026-05-04 19:42 | 51.45029 | 8.19951 | 24001 ft | 388 kts | 320° |
| 2026-05-04 19:42 | 51.46843 | 8.16950 | 23706 ft | 377 kts | 297° |
| 2026-05-04 19:42 | 51.47705 | 8.13090 | 23263 ft | 365 kts | 272° |
| 2026-05-04 19:42 | 51.47442 | 8.09122 | 22803 ft | 358 kts | 249° |
| 2026-05-04 19:43 | 51.46493 | 8.05437 | 22346 ft | 357 kts | 245° |
| 2026-05-04 19:43 | 51.45518 | 8.01788 | 21896 ft | 356 kts | 245° |
| 2026-05-04 19:43 | 51.44544 | 7.98149 | 21449 ft | 354 kts | 245° |
| 2026-05-04 19:43 | 51.43762 | 7.94429 | 21044 ft | 353 kts | 260° |
| 2026-05-04 19:44 | 51.43552 | 7.90514 | 20962 ft | 354 kts | 264° |
| 2026-05-04 19:44 | 51.43388 | 7.86574 | 20853 ft | 353 kts | 264° |
| 2026-05-04 19:44 | 51.43228 | 7.82677 | 20476 ft | 348 kts | 264° |
| 2026-05-04 19:44 | 51.43072 | 7.78846 | 20105 ft | 344 kts | 263° |
| 2026-05-04 19:45 | 51.42911 | 7.75032 | 19734 ft | 340 kts | 263° |
| 2026-05-04 19:45 | 51.42749 | 7.71279 | 19371 ft | 336 kts | 263° |
| 2026-05-04 19:45 | 51.42586 | 7.67559 | 19013 ft | 332 kts | 263° |
| 2026-05-04 19:45 | 51.42423 | 7.63888 | 18638 ft | 330 kts | 263° |
| 2026-05-04 19:46 | 51.42259 | 7.60215 | 18155 ft | 331 kts | 263° |
| 2026-05-04 19:46 | 51.42203 | 7.56571 | 17617 ft | 334 kts | 274° |
| 2026-05-04 19:46 | 51.42896 | 7.53006 | 16972 ft | 336 kts | 297° |
| 2026-05-04 19:46 | 51.44373 | 7.50181 | 16351 ft | 330 kts | 319° |
| 2026-05-04 19:47 | 51.46201 | 7.48031 | 15749 ft | 322 kts | 323° |
| 2026-05-04 19:47 | 51.48025 | 7.46027 | 15077 ft | 317 kts | 323° |
| 2026-05-04 19:47 | 51.49841 | 7.44033 | 14313 ft | 316 kts | 323° |
| 2026-05-04 19:47 | 51.51645 | 7.42035 | 13572 ft | 313 kts | 323° |
| 2026-05-04 19:48 | 51.53415 | 7.40061 | 12984 ft | 308 kts | 323° |
| 2026-05-04 19:48 | 51.55163 | 7.38105 | 12461 ft | 304 kts | 323° |
| 2026-05-04 19:48 | 51.56887 | 7.36170 | 11969 ft | 300 kts | 323° |
| 2026-05-04 19:48 | 51.58583 | 7.34262 | 11540 ft | 294 kts | 323° |
| 2026-05-04 19:49 | 51.60242 | 7.32387 | 11137 ft | 288 kts | 323° |
| 2026-05-04 19:49 | 51.61855 | 7.30557 | 10790 ft | 280 kts | 323° |
| 2026-05-04 19:49 | 51.63421 | 7.28775 | 10449 ft | 272 kts | 323° |
| 2026-05-04 19:49 | 51.64961 | 7.27014 | 10098 ft | 272 kts | 323° |
| 2026-05-04 19:50 | 51.66506 | 7.25237 | 9682 ft | 273 kts | 323° |
| 2026-05-04 19:50 | 51.68055 | 7.23448 | 9241 ft | 275 kts | 323° |
| 2026-05-04 19:50 | 51.69599 | 7.21638 | 8849 ft | 274 kts | 319° |
| 2026-05-04 19:50 | 51.70754 | 7.19262 | 8464 ft | 269 kts | 291° |
| 2026-05-04 19:51 | 51.71059 | 7.16359 | 8156 ft | 262 kts | 262° |
| 2026-05-04 19:51 | 51.70494 | 7.13679 | 7850 ft | 255 kts | 238° |
| 2026-05-04 19:51 | 51.69533 | 7.11309 | 7553 ft | 251 kts | 234° |
| 2026-05-04 19:51 | 51.68538 | 7.09026 | 7307 ft | 246 kts | 233° |
| 2026-05-04 19:52 | 51.67558 | 7.06804 | 7138 ft | 240 kts | 233° |
| 2026-05-04 19:52 | 51.66594 | 7.04618 | 7036 ft | 239 kts | 233° |
| 2026-05-04 19:52 | 51.65631 | 7.02436 | 6958 ft | 238 kts | 233° |
| 2026-05-04 19:52 | 51.64668 | 7.00253 | 6972 ft | 240 kts | 233° |
| 2026-05-04 19:53 | 51.63702 | 6.98062 | 6973 ft | 240 kts | 233° |
| 2026-05-04 19:53 | 51.62736 | 6.95870 | 6970 ft | 240 kts | 233° |
| 2026-05-04 19:53 | 51.61770 | 6.93683 | 6972 ft | 240 kts | 233° |
| 2026-05-04 19:53 | 51.60799 | 6.91489 | 6972 ft | 240 kts | 233° |
| 2026-05-04 19:54 | 51.59832 | 6.89303 | 6972 ft | 240 kts | 233° |
| 2026-05-04 19:54 | 51.59191 | 6.87856 | 6972 ft | 240 kts | 233° |
| 2026-05-04 19:54 | 51.58001 | 6.85179 | 6978 ft | 240 kts | 233° |
| 2026-05-04 19:54 | 51.56947 | 6.83111 | 6968 ft | 238 kts | 217° |
| 2026-05-04 19:55 | 51.55459 | 6.82052 | 6975 ft | 237 kts | 186° |
| 2026-05-04 19:55 | 51.53847 | 6.82421 | 6974 ft | 237 kts | 154° |
| 2026-05-04 19:55 | 51.52444 | 6.83827 | 6978 ft | 239 kts | 145° |
| 2026-05-04 19:55 | 51.51113 | 6.85433 | 6974 ft | 239 kts | 143° |
| 2026-05-04 19:56 | 51.49795 | 6.87069 | 6973 ft | 239 kts | 143° |
| 2026-05-04 19:56 | 51.48484 | 6.88710 | 6976 ft | 239 kts | 143° |
| 2026-05-04 19:56 | 51.47312 | 6.90538 | 6973 ft | 241 kts | 123° |
| 2026-05-04 19:56 | 51.46817 | 6.93125 | 6973 ft | 245 kts | 91° |
| 2026-05-04 19:57 | 51.46991 | 6.94920 | 6975 ft | 249 kts | 71° |
| 2026-05-04 19:57 | 51.47852 | 6.97335 | 6978 ft | 252 kts | 55° |
| 2026-05-04 19:57 | 51.48888 | 6.99567 | 6844 ft | 248 kts | 53° |
| 2026-05-04 19:57 | 51.49926 | 7.01728 | 6573 ft | 242 kts | 53° |
| 2026-05-04 19:58 | 51.50950 | 7.03853 | 6271 ft | 239 kts | 53° |
| 2026-05-04 19:58 | 51.51959 | 7.05948 | 5897 ft | 238 kts | 53° |
| 2026-05-04 19:58 | 51.52982 | 7.08082 | 5379 ft | 243 kts | 53° |
| 2026-05-04 19:58 | 51.53990 | 7.10198 | 4983 ft | 233 kts | 53° |
| 2026-05-04 19:59 | 51.54848 | 7.12333 | 4539 ft | 226 kts | 72° |
| 2026-05-04 19:59 | 51.54925 | 7.14774 | 4252 ft | 217 kts | 108° |
| 2026-05-04 19:59 | 51.54162 | 7.16772 | 4032 ft | 209 kts | 137° |
| 2026-05-04 19:59 | 51.53042 | 7.18259 | 3917 ft | 209 kts | 152° |
| 2026-05-04 20:00 | 51.51677 | 7.18939 | 3785 ft | 206 kts | 175° |
| 2026-05-04 20:00 | 51.50255 | 7.18803 | 3623 ft | 205 kts | 195° |
| 2026-05-04 20:00 | 51.48964 | 7.17889 | 3586 ft | 205 kts | 214° |
| 2026-05-04 20:00 | 51.47944 | 7.16304 | 3533 ft | 205 kts | 232° |
| 2026-05-04 20:01 | 51.47086 | 7.14473 | 3489 ft | 206 kts | 232° |
| 2026-05-04 20:01 | 51.46227 | 7.12636 | 3446 ft | 206 kts | 232° |
| 2026-05-04 20:01 | 51.45367 | 7.10804 | 3397 ft | 206 kts | 232° |
| 2026-05-04 20:01 | 51.44505 | 7.08969 | 3298 ft | 206 kts | 232° |
| 2026-05-04 20:02 | 51.43644 | 7.07137 | 3164 ft | 206 kts | 232° |
| 2026-05-04 20:02 | 51.42785 | 7.05312 | 3067 ft | 205 kts | 232° |
| 2026-05-04 20:02 | 51.41927 | 7.03492 | 2998 ft | 202 kts | 232° |
| 2026-05-04 20:02 | 51.41117 | 7.01771 | 3018 ft | 185 kts | 232° |
| 2026-05-04 20:03 | 51.40361 | 7.00168 | 3027 ft | 177 kts | 231° |
| 2026-05-04 20:03 | 51.39625 | 6.98609 | 3015 ft | 175 kts | 231° |
| 2026-05-04 20:03 | 51.38892 | 6.97058 | 3002 ft | 174 kts | 231° |
| 2026-05-04 20:03 | 51.38165 | 6.95519 | 2911 ft | 173 kts | 231° |
| 2026-05-04 20:04 | 51.37441 | 6.93987 | 2682 ft | 172 kts | 231° |
| 2026-05-04 20:04 | 51.36716 | 6.92455 | 2453 ft | 172 kts | 231° |
| 2026-05-04 20:04 | 51.35995 | 6.90932 | 2224 ft | 171 kts | 231° |
| 2026-05-04 20:04 | 51.35276 | 6.89413 | 1993 ft | 171 kts | 231° |
| 2026-05-04 20:05 | 51.34556 | 6.87895 | 1760 ft | 171 kts | 231° |
| 2026-05-04 20:05 | 51.33872 | 6.86450 | 1533 ft | 154 kts | 231° |
| 2026-05-04 20:05 | 51.33240 | 6.85118 | 1327 ft | 148 kts | 231° |
| 2026-05-04 20:05 | 51.32609 | 6.83789 | 1128 ft | 148 kts | 231° |
| 2026-05-04 20:06 | 51.31990 | 6.82485 | 928 ft | 147 kts | 230° |
| 2026-05-04 20:06 | 51.31379 | 6.81201 | 728 ft | 144 kts | 230° |
| 2026-05-04 20:06 | 51.30772 | 6.79924 | 539 ft | 144 kts | 231° |
| 2026-05-04 20:06 | 51.30170 | 6.78654 | 350 ft | 144 kts | 231° |
| 2026-05-04 20:07 | 51.29571 | 6.77384 | 165 ft | 140 kts | 230° |
| 2026-05-04 20:07 | 51.29028 | 6.76257 | 137 ft | 112 kts | 232° |
| 2026-05-04 20:07 | 51.28672 | 6.75509 | 134 ft | 61 kts | 232° |
| 2026-05-04 20:07 | 51.28459 | 6.75064 | 133 ft | 34 kts | 232° |
| 2026-05-04 20:08 | 51.28317 | 6.74974 | 134 ft | 24 kts | 165° |
| 2026-05-04 20:08 | 51.28163 | 6.75092 | 136 ft | 18 kts | 153° |
| 2026-05-04 20:08 | 51.28092 | 6.75150 | 135 ft | 4 kts | 153° |
| 2026-05-04 20:08 | 51.28077 | 6.75162 | 135 ft | 0 kts | 153° |
| 2026-05-04 20:10 | 51.28053 | 6.75182 | 134 ft | 10 kts | 153° |
| 2026-05-04 20:10 | 51.27974 | 6.75245 | 127 ft | 14 kts | 153° |
| 2026-05-04 20:10 | 51.27897 | 6.75306 | 134 ft | 10 kts | 154° |
| 2026-05-04 20:10 | 51.27840 | 6.75372 | 136 ft | 14 kts | 110° |
| 2026-05-04 20:11 | 51.27895 | 6.75532 | 136 ft | 17 kts | 53° |
| 2026-05-04 20:11 | 51.27956 | 6.75660 | 137 ft | 12 kts | 52° |
| 2026-05-04 20:11 | 51.27997 | 6.75772 | 137 ft | 11 kts | 92° |
| 2026-05-04 20:11 | 51.27948 | 6.75820 | 137 ft | 8 kts | 180° |
| 2026-05-04 20:12 | 51.27890 | 6.75818 | 137 ft | 9 kts | 182° |
| 2026-05-04 20:12 | 51.27847 | 6.75816 | 137 ft | 3 kts | 181° |
| 2026-05-04 20:12 | 51.27805 | 6.75814 | 137 ft | 10 kts | 181° |
| 2026-05-04 20:12 | 51.27728 | 6.75812 | 137 ft | 11 kts | 181° |
| 2026-05-04 20:13 | 51.27674 | 6.75827 | 137 ft | 6 kts | 118° |
| 2026-05-04 20:13 | 51.27667 | 6.75900 | 137 ft | 5 kts | 92° |
| 2026-05-04 20:13 | 51.27667 | 6.75914 | 137 ft | 0 kts | 91° |